Ruby Princess — ZCDY2 — position and weather

sailwx.info

Track history (hours):
 
Tides and Currents Weather Stations Pressure Air Temp Water Temp Dewpoint Dewpoint Depression Visibility Wind Speed Wind Dir Waves Ship Positions

Ruby Princess

Last reported at 2018-May-27 08:00 UTC. Time now 2018-May-27 08:14 UTC.
Position N 48°49' W 125°55'.

Length 289 m; draft 8.7 m.

Type: Ship. MMSI: 310567000.

Date/timePositionNaut miles runAvg speedWind from/ knotsBaromVisibWave heightAir tempDewpointWater temp
2018-May-27 08:00N 48°49' W 125°55'1121.9
2018-May-27 07:30N 48°43' W 125°41'1121.6
2018-May-27 07:00N 48°38' W 125°26'1121.6
2018-May-27 06:30N 48°33' W 125°11'1121.6
2018-May-27 06:00N 48°32' W 124°55'1121.5
2018-May-27 05:31N 48°30' W 124°39'1122.0
2018-May-27 05:01N 48°25' W 124°24'1121.9
2018-May-27 04:31N 48°21' W 124°09'1221.8
2018-May-27 03:58N 48°17' W 123°53'3117.4
2018-May-27 02:12N 48°13' W 123°07'419.4
2018-May-27 02:00N 48°12' W 123°01'2118.2
2018-May-27 00:50N 47°60' W 122°36'720.0
2018-May-27 00:31N 47°54' W 122°30'1019.2
2018-May-27 00:00N 47°45' W 122°26'815.5
2018-May-26 23:30N 47°37' W 122°24'1 1.6
2018-May-26 23:00N 47°38' W 122°23'0 0.0
2018-May-26 22:29N 47°38' W 122°23'0 0.0
2018-May-26 21:59N 47°38' W 122°23'0 0.0
2018-May-26 21:29N 47°38' W 122°23'0 0.0
2018-May-26 20:59N 47°38' W 122°23'0 0.0
2018-May-26 20:29N 47°38' W 122°23'0 0.0
2018-May-26 19:58N 47°38' W 122°23'0 0.0
2018-May-26 19:28N 47°38' W 122°23'0 0.0
2018-May-26 18:58N 47°38' W 122°23'0 0.0
2018-May-26 18:28N 47°38' W 122°23'0 0.0
2018-May-26 18:01N 47°38' W 122°23'0 0.0
2018-May-26 17:30N 47°38' W 122°23'0 0.0
2018-May-26 17:00N 47°38' W 122°23'0 0.0
2018-May-26 16:30N 47°38' W 122°23'0 0.0
2018-May-26 16:00N 47°38' W 122°23'0 0.0
2018-May-26 15:29N 47°38' W 122°23'0 0.0
2018-May-26 14:59N 47°38' W 122°23'0 0.0
2018-May-26 14:29N 47°38' W 122°23'0 0.0
2018-May-26 13:59N 47°38' W 122°23'0 0.0
2018-May-26 13:29N 47°38' W 122°23'0 0.0
2018-May-26 12:58N 47°38' W 122°23'1 2.7
2018-May-26 12:30N 47°37' W 122°24'611.4
2018-May-26 12:00N 47°42' W 122°28'713.6
2018-May-26 11:30N 47°49' W 122°28'713.7
2018-May-26 11:00N 47°56' W 122°31'713.6
2018-May-26 10:28N 48°01' W 122°38'1213.6
2018-May-26 09:36N 48°11' W 122°49'216.5
2018-May-26 09:29N 48°11' W 122°52'816.4
2018-May-26 08:59N 48°12' W 123°04'18 2.3
2018-May-26 01:14N 48°23' W 123°24'414.4
2018-May-26 00:58N 48°19' W 123°25'1816.5
2018-May-25 23:52N 48°14' W 123°51'821.0
2018-May-25 23:30N 48°16' W 124°02'1121.2
2018-May-25 23:01N 48°20' W 124°16'1121.5
2018-May-25 22:31N 48°25' W 124°30'1121.5
2018-May-25 22:00N 48°29' W 124°45'1121.4
2018-May-25 21:30N 48°29' W 125°02'1121.6
2018-May-25 21:00N 48°32' W 125°17'1122.4
2018-May-25 20:31N 48°37' W 125°32'1122.2
2018-May-25 20:01N 48°43' W 125°46'1121.7
2018-May-25 19:31N 48°48' W 126°00'1121.7
2018-May-25 19:01N 48°55' W 126°14'1122.3
2018-May-25 18:31N 49°02' W 126°27'1122.4
2018-May-25 18:00N 49°08' W 126°41'1322.6
2018-May-25 17:26N 49°16' W 126°56'13721.6
2018-May-25 11:08N 50°58' W 129°19'215.9
2018-May-25 11:00N 51°00' W 129°18'826.3 170 / 171020.910.8 10.5 6.211.0
2018-May-25 10:41N 51°07' W 129°25'421.8
2018-May-25 10:30N 51°10' W 129°27'13421.8
2018-May-25 04:21N 53°14' W 130°53'1320.7
2018-May-25 03:44N 53°26' W 131°01'520.5
2018-May-25 03:30N 53°30' W 131°01'1120.5
2018-May-25 02:59N 53°41' W 131°01'1021.0
2018-May-25 02:30N 53°51' W 131°02'1121.2
2018-May-25 02:00N 54°02' W 131°02'1021.3
2018-May-25 01:30N 54°12' W 131°03'1120.9
2018-May-25 01:00N 54°22' W 131°09'1121.2
2018-May-25 00:30N 54°31' W 131°18'26110.8
2018-May-24 00:19N 58°12' W 135°27'721.4
2018-May-23 23:59N 58°16' W 135°39'919.9
2018-May-23 23:31N 58°20' W 135°55'713.7
2018-May-23 23:00N 58°26' W 135°59'612.2
2018-May-23 22:30N 58°32' W 136°04'714.0
2018-May-23 22:00N 58°38' W 136°08'714.6
2018-May-23 21:30N 58°44' W 136°17'1 0.1
2018-May-23 15:21N 58°45' W 136°18'616.8
2018-May-23 15:00N 58°40' W 136°10'816.3
2018-May-23 14:30N 58°33' W 136°03'815.6
2018-May-23 14:01N 58°26' W 135°58'611.2
2018-May-23 13:30N 58°20' W 135°56'611.2
2018-May-23 13:00N 58°18' W 135°46'611.5
2018-May-23 12:30N 58°16' W 135°36'  
2018-May-21 03:00N 53°36' W 133°30'16022.8 150 / 171012.0 5.4 10.0 9.0 9.0
2018-May-20 20:00N 51°30' W 130°48'8519.2 180 / 241016.510.8 11.0 9.010.0
2018-May-20 15:33N 50°32' W 129°09'122.3
2018-May-20 15:31N 50°31' W 129°07'1630.4
2018-May-20 15:00N 50°18' W 128°54'422.2 210 / 181017.010.8 10.5 6.211.0
2018-May-20 14:49N 50°21' W 128°49'722.5
2018-May-20 14:30N 50°16' W 128°41'1122.5
2018-May-20 14:00N 50°08' W 128°28'1622.3
2018-May-20 13:17N 49°58' W 128°10'6221.9
2018-May-20 10:28N 49°18' W 126°56'1122.1
2018-May-20 09:59N 49°12' W 126°43'1122.1
2018-May-20 09:30N 49°06' W 126°30'1122.2
2018-May-20 09:00N 48°59' W 126°16'1121.9
2018-May-20 08:30N 48°53' W 126°03'1121.1
2018-May-20 08:00N 48°47' W 125°50'1122.1
2018-May-20 07:30N 48°41' W 125°35'1122.3
2018-May-20 07:00N 48°36' W 125°20'1122.3
2018-May-20 06:30N 48°32' W 125°04'1123.3
2018-May-20 06:01N 48°32' W 124°47'1122.6
2018-May-20 05:31N 48°28' W 124°31'1020.7
2018-May-20 05:01N 48°24' W 124°17'1020.2
2018-May-20 04:31N 48°20' W 124°03'1019.7
2018-May-20 04:00N 48°17' W 123°48'1019.6
2018-May-20 03:29N 48°16' W 123°34'918.3
2018-May-20 03:00N 48°11' W 123°22'712.2
2018-May-20 02:27N 48°11' W 123°12'818.6
2018-May-20 01:59N 48°12' W 122°59'918.6
2018-May-20 01:30N 48°11' W 122°46'1316.3
2018-May-20 00:44N 47°60' W 122°36'417.8
2018-May-20 00:31N 47°57' W 122°32'1019.4
2018-May-20 00:01N 47°48' W 122°26'918.0
2018-May-19 23:30N 47°39' W 122°27'3 5.8
2018-May-19 22:59N 47°38' W 122°23'0 0.0
2018-May-19 22:28N 47°38' W 122°23'0 0.0
2018-May-19 21:58N 47°38' W 122°23'0 0.0
2018-May-19 21:28N 47°38' W 122°23'0 0.0
2018-May-19 20:58N 47°38' W 122°23'0 0.0
2018-May-19 20:28N 47°38' W 122°23'0 0.0
2018-May-19 20:00N 47°38' W 122°23'0 0.0
2018-May-19 19:30N 47°38' W 122°23'0 0.0
2018-May-19 19:00N 47°38' W 122°23'0 0.0
2018-May-19 18:27N 47°38' W 122°23'0 0.0
2018-May-19 17:59N 47°38' W 122°23'0 0.0
2018-May-19 17:29N 47°38' W 122°23'0 0.0
2018-May-19 16:59N 47°38' W 122°23'0 0.0
2018-May-19 16:29N 47°38' W 122°23'0 0.0
2018-May-19 15:59N 47°38' W 122°23'0 0.0
2018-May-19 15:25N 47°38' W 122°23'0 0.0
2018-May-19 14:55N 47°38' W 122°23'0 0.0
2018-May-19 14:28N 47°38' W 122°23'0 0.0
2018-May-19 13:58N 47°38' W 122°23'0 0.0
2018-May-19 13:30N 47°38' W 122°23'0 0.0
2018-May-19 13:00N 47°38' W 122°23'2 3.2
2018-May-19 12:30N 47°37' W 122°25'611.5
2018-May-19 12:00N 47°43' W 122°28'713.5
2018-May-19 11:30N 47°49' W 122°28'713.3
2018-May-19 11:00N 47°56' W 122°31'913.5
2018-May-19 10:21N 48°03' W 122°39'714.3
2018-May-19 09:51N 48°09' W 122°44'615.4
2018-May-19 09:30N 48°11' W 122°52'816.4
2018-May-19 09:00N 48°12' W 123°04'815.9
2018-May-19 08:30N 48°11' W 123°16'12 8.8
2018-May-19 07:05N 48°22' W 123°25'115.1
2018-May-19 07:00N 48°23' W 123°25'2 4.3
2018-May-19 06:30N 48°25' W 123°24'0 0.0
2018-May-19 05:57N 48°25' W 123°24'0 0.0
2018-May-19 05:30N 48°25' W 123°24'0 0.0
2018-May-19 04:54N 48°25' W 123°24'0 0.0
2018-May-19 04:23N 48°25' W 123°24'0 0.0
2018-May-19 03:59N 48°25' W 123°24'0 0.0
2018-May-19 03:29N 48°25' W 123°24'0 0.0
2018-May-19 02:59N 48°25' W 123°24'0 0.0
2018-May-19 02:29N 48°25' W 123°24'0 0.0
2018-May-19 01:58N 48°25' W 123°24'0 0.0
2018-May-19 01:28N 48°25' W 123°24'0 0.8
2018-May-19 01:00N 48°25' W 123°24'611.0
2018-May-19 00:30N 48°19' W 123°25'917.7
2018-May-19 00:01N 48°13' W 123°34'1222.3
2018-May-18 23:29N 48°14' W 123°52'1021.8
2018-May-18 23:00N 48°17' W 124°06'1121.4
2018-May-18 22:30N 48°21' W 124°21'1020.6
2018-May-18 22:00N 48°26' W 124°35'1020.2
2018-May-18 21:30N 48°29' W 124°50'1020.7
2018-May-18 21:01N 48°29' W 125°05'1020.3
2018-May-18 20:31N 48°32' W 125°19'1121.0
2018-May-18 20:01N 48°38' W 125°33'1020.5
2018-May-18 19:30N 48°43' W 125°46'1020.2
2018-May-18 19:00N 48°48' W 125°59'1020.8
2018-May-18 18:31N 48°54' W 126°12'1121.2
2018-May-18 18:00N 49°01' W 126°25'1121.6
2018-May-18 17:30N 49°07' W 126°38'1121.8
2018-May-18 17:00N 49°14' W 126°51'1122.2
2018-May-18 16:30N 49°21' W 127°05'5022.4
2018-May-18 14:17N 49°53' W 128°04'621.8
2018-May-18 14:00N 49°57' W 128°11'1122.1
2018-May-18 13:29N 50°06' W 128°22'1122.5
2018-May-18 13:00N 50°14' W 128°32'1122.3
2018-May-18 12:30N 50°23' W 128°43'1122.0
2018-May-18 12:01N 50°32' W 128°53'1122.7
2018-May-18 11:30N 50°41' W 129°04'1122.7
2018-May-18 11:01N 50°50' W 129°14'1122.0
2018-May-18 10:30N 51°01' W 129°21'1121.8
2018-May-18 10:00N 51°10' W 129°27'1122.1
2018-May-18 09:31N 51°21' W 129°34'1122.4
2018-May-18 09:00N 51°31' W 129°41'1121.7
2018-May-18 08:30N 51°41' W 129°48'1121.6
2018-May-18 08:01N 51°51' W 129°55'1121.9
2018-May-18 07:31N 52°01' W 130°02'1121.5
2018-May-18 07:01N 52°11' W 130°08'1121.6
2018-May-18 06:30N 52°21' W 130°15'1121.7
2018-May-18 06:00N 52°31' W 130°22'1121.8
2018-May-18 05:30N 52°41' W 130°29'1121.8
2018-May-18 05:00N 52°51' W 130°37'1122.2
2018-May-18 04:30N 53°01' W 130°44'1122.3
2018-May-18 04:00N 53°11' W 130°51'1122.4
2018-May-18 03:31N 53°21' W 130°58'1122.5
2018-May-18 03:00N 53°33' W 131°01'1122.6
2018-May-18 02:30N 53°44' W 131°01'1222.5
2018-May-18 02:00N 53°55' W 131°02'1122.3
2018-May-18 01:30N 54°06' W 131°02'1122.6
2018-May-18 01:00N 54°18' W 131°02'1121.3
2018-May-18 00:30N 54°27' W 131°12'1122.5
2018-May-18 00:00N 54°36' W 131°23'1623.0
2018-May-17 23:17N 54°50' W 131°39'  
Track history (hours):
 
Tides and Currents Weather Stations Pressure Air Temp Water Temp Dewpoint Dewpoint Depression Visibility Wind Speed Wind Dir Waves Ship Positions

Ruby Princess

Last reported at 2018-May-27 08:00 UTC. Time now 2018-May-27 08:14 UTC.
Position N 48°49' W 125°55'.

Length 289 m; draft 8.7 m.

Type: Ship. MMSI: 310567000.

Date/timePositionNaut miles runAvg speedWind from/ knotsBaromVisibWave heightAir tempDewpointWater temp
2018-May-27 08:00N 48°49' W 125°55'1121.9
2018-May-27 07:30N 48°43' W 125°41'1121.6
2018-May-27 07:00N 48°38' W 125°26'1121.6
2018-May-27 06:30N 48°33' W 125°11'1121.6
2018-May-27 06:00N 48°32' W 124°55'1121.5
2018-May-27 05:31N 48°30' W 124°39'1122.0
2018-May-27 05:01N 48°25' W 124°24'1121.9
2018-May-27 04:31N 48°21' W 124°09'1221.8
2018-May-27 03:58N 48°17' W 123°53'3117.4
2018-May-27 02:12N 48°13' W 123°07'419.4
2018-May-27 02:00N 48°12' W 123°01'2118.2
2018-May-27 00:50N 47°60' W 122°36'720.0
2018-May-27 00:31N 47°54' W 122°30'1019.2
2018-May-27 00:00N 47°45' W 122°26'815.5
2018-May-26 23:30N 47°37' W 122°24'1 1.6
2018-May-26 23:00N 47°38' W 122°23'0 0.0
2018-May-26 22:29N 47°38' W 122°23'0 0.0
2018-May-26 21:59N 47°38' W 122°23'0 0.0
2018-May-26 21:29N 47°38' W 122°23'0 0.0
2018-May-26 20:59N 47°38' W 122°23'0 0.0
2018-May-26 20:29N 47°38' W 122°23'0 0.0
2018-May-26 19:58N 47°38' W 122°23'0 0.0
2018-May-26 19:28N 47°38' W 122°23'0 0.0
2018-May-26 18:58N 47°38' W 122°23'0 0.0
2018-May-26 18:28N 47°38' W 122°23'0 0.0
2018-May-26 18:01N 47°38' W 122°23'0 0.0
2018-May-26 17:30N 47°38' W 122°23'0 0.0
2018-May-26 17:00N 47°38' W 122°23'0 0.0
2018-May-26 16:30N 47°38' W 122°23'0 0.0
2018-May-26 16:00N 47°38' W 122°23'0 0.0
2018-May-26 15:29N 47°38' W 122°23'0 0.0
2018-May-26 14:59N 47°38' W 122°23'0 0.0
2018-May-26 14:29N 47°38' W 122°23'0 0.0
2018-May-26 13:59N 47°38' W 122°23'0 0.0
2018-May-26 13:29N 47°38' W 122°23'0 0.0
2018-May-26 12:58N 47°38' W 122°23'1 2.7
2018-May-26 12:30N 47°37' W 122°24'611.4
2018-May-26 12:00N 47°42' W 122°28'713.6
2018-May-26 11:30N 47°49' W 122°28'713.7
2018-May-26 11:00N 47°56' W 122°31'713.6
2018-May-26 10:28N 48°01' W 122°38'1213.6
2018-May-26 09:36N 48°11' W 122°49'216.5
2018-May-26 09:29N 48°11' W 122°52'816.4
2018-May-26 08:59N 48°12' W 123°04'18 2.3
2018-May-26 01:14N 48°23' W 123°24'414.4
2018-May-26 00:58N 48°19' W 123°25'1816.5
2018-May-25 23:52N 48°14' W 123°51'821.0
2018-May-25 23:30N 48°16' W 124°02'1121.2
2018-May-25 23:01N 48°20' W 124°16'1121.5
2018-May-25 22:31N 48°25' W 124°30'1121.5
2018-May-25 22:00N 48°29' W 124°45'1121.4
2018-May-25 21:30N 48°29' W 125°02'1121.6
2018-May-25 21:00N 48°32' W 125°17'1122.4
2018-May-25 20:31N 48°37' W 125°32'1122.2
2018-May-25 20:01N 48°43' W 125°46'1121.7
2018-May-25 19:31N 48°48' W 126°00'1121.7
2018-May-25 19:01N 48°55' W 126°14'1122.3
2018-May-25 18:31N 49°02' W 126°27'1122.4
2018-May-25 18:00N 49°08' W 126°41'1322.6
2018-May-25 17:26N 49°16' W 126°56'13721.6
2018-May-25 11:08N 50°58' W 129°19'215.9
2018-May-25 11:00N 51°00' W 129°18'826.3 170 / 171020.910.8 10.5 6.211.0
2018-May-25 10:41N 51°07' W 129°25'421.8
2018-May-25 10:30N 51°10' W 129°27'13421.8
2018-May-25 04:21N 53°14' W 130°53'1320.7
2018-May-25 03:44N 53°26' W 131°01'520.5
2018-May-25 03:30N 53°30' W 131°01'1120.5
2018-May-25 02:59N 53°41' W 131°01'1021.0
2018-May-25 02:30N 53°51' W 131°02'1121.2
2018-May-25 02:00N 54°02' W 131°02'1021.3
2018-May-25 01:30N 54°12' W 131°03'1120.9
2018-May-25 01:00N 54°22' W 131°09'1121.2
2018-May-25 00:30N 54°31' W 131°18'26110.8
2018-May-24 00:19N 58°12' W 135°27'721.4
2018-May-23 23:59N 58°16' W 135°39'919.9
2018-May-23 23:31N 58°20' W 135°55'713.7
2018-May-23 23:00N 58°26' W 135°59'612.2
2018-May-23 22:30N 58°32' W 136°04'714.0
2018-May-23 22:00N 58°38' W 136°08'714.6
2018-May-23 21:30N 58°44' W 136°17'1 0.1
2018-May-23 15:21N 58°45' W 136°18'616.8
2018-May-23 15:00N 58°40' W 136°10'816.3
2018-May-23 14:30N 58°33' W 136°03'815.6
2018-May-23 14:01N 58°26' W 135°58'611.2
2018-May-23 13:30N 58°20' W 135°56'611.2
2018-May-23 13:00N 58°18' W 135°46'611.5
2018-May-23 12:30N 58°16' W 135°36'  
2018-May-21 03:00N 53°36' W 133°30'16022.8 150 / 171012.0 5.4 10.0 9.0 9.0
2018-May-20 20:00N 51°30' W 130°48'8519.2 180 / 241016.510.8 11.0 9.010.0
2018-May-20 15:33N 50°32' W 129°09'122.3
2018-May-20 15:31N 50°31' W 129°07'1630.4
2018-May-20 15:00N 50°18' W 128°54'422.2 210 / 181017.010.8 10.5 6.211.0
2018-May-20 14:49N 50°21' W 128°49'722.5
2018-May-20 14:30N 50°16' W 128°41'1122.5
2018-May-20 14:00N 50°08' W 128°28'1622.3
2018-May-20 13:17N 49°58' W 128°10'6221.9
2018-May-20 10:28N 49°18' W 126°56'1122.1
2018-May-20 09:59N 49°12' W 126°43'1122.1
2018-May-20 09:30N 49°06' W 126°30'1122.2
2018-May-20 09:00N 48°59' W 126°16'1121.9
2018-May-20 08:30N 48°53' W 126°03'1121.1
2018-May-20 08:00N 48°47' W 125°50'1122.1
2018-May-20 07:30N 48°41' W 125°35'1122.3
2018-May-20 07:00N 48°36' W 125°20'1122.3
2018-May-20 06:30N 48°32' W 125°04'1123.3
2018-May-20 06:01N 48°32' W 124°47'1122.6
2018-May-20 05:31N 48°28' W 124°31'1020.7
2018-May-20 05:01N 48°24' W 124°17'1020.2
2018-May-20 04:31N 48°20' W 124°03'1019.7
2018-May-20 04:00N 48°17' W 123°48'1019.6
2018-May-20 03:29N 48°16' W 123°34'918.3
2018-May-20 03:00N 48°11' W 123°22'712.2
2018-May-20 02:27N 48°11' W 123°12'818.6
2018-May-20 01:59N 48°12' W 122°59'918.6
2018-May-20 01:30N 48°11' W 122°46'1316.3
2018-May-20 00:44N 47°60' W 122°36'417.8
2018-May-20 00:31N 47°57' W 122°32'1019.4
2018-May-20 00:01N 47°48' W 122°26'918.0
2018-May-19 23:30N 47°39' W 122°27'3 5.8
2018-May-19 22:59N 47°38' W 122°23'0 0.0
2018-May-19 22:28N 47°38' W 122°23'0 0.0
2018-May-19 21:58N 47°38' W 122°23'0 0.0
2018-May-19 21:28N 47°38' W 122°23'0 0.0
2018-May-19 20:58N 47°38' W 122°23'0 0.0
2018-May-19 20:28N 47°38' W 122°23'0 0.0
2018-May-19 20:00N 47°38' W 122°23'0 0.0
2018-May-19 19:30N 47°38' W 122°23'0 0.0
2018-May-19 19:00N 47°38' W 122°23'0 0.0
2018-May-19 18:27N 47°38' W 122°23'0 0.0
2018-May-19 17:59N 47°38' W 122°23'0 0.0
2018-May-19 17:29N 47°38' W 122°23'0 0.0
2018-May-19 16:59N 47°38' W 122°23'0 0.0
2018-May-19 16:29N 47°38' W 122°23'0 0.0
2018-May-19 15:59N 47°38' W 122°23'0 0.0
2018-May-19 15:25N 47°38' W 122°23'0 0.0
2018-May-19 14:55N 47°38' W 122°23'0 0.0
2018-May-19 14:28N 47°38' W 122°23'0 0.0
2018-May-19 13:58N 47°38' W 122°23'0 0.0
2018-May-19 13:30N 47°38' W 122°23'0 0.0
2018-May-19 13:00N 47°38' W 122°23'2 3.2
2018-May-19 12:30N 47°37' W 122°25'611.5
2018-May-19 12:00N 47°43' W 122°28'713.5
2018-May-19 11:30N 47°49' W 122°28'713.3
2018-May-19 11:00N 47°56' W 122°31'913.5
2018-May-19 10:21N 48°03' W 122°39'714.3
2018-May-19 09:51N 48°09' W 122°44'615.4
2018-May-19 09:30N 48°11' W 122°52'816.4
2018-May-19 09:00N 48°12' W 123°04'815.9
2018-May-19 08:30N 48°11' W 123°16'12 8.8
2018-May-19 07:05N 48°22' W 123°25'115.1
2018-May-19 07:00N 48°23' W 123°25'2 4.3
2018-May-19 06:30N 48°25' W 123°24'0 0.0
2018-May-19 05:57N 48°25' W 123°24'0 0.0
2018-May-19 05:30N 48°25' W 123°24'0 0.0
2018-May-19 04:54N 48°25' W 123°24'0 0.0
2018-May-19 04:23N 48°25' W 123°24'0 0.0
2018-May-19 03:59N 48°25' W 123°24'0 0.0
2018-May-19 03:29N 48°25' W 123°24'0 0.0
2018-May-19 02:59N 48°25' W 123°24'0 0.0
2018-May-19 02:29N 48°25' W 123°24'0 0.0
2018-May-19 01:58N 48°25' W 123°24'0 0.0
2018-May-19 01:28N 48°25' W 123°24'0 0.8
2018-May-19 01:00N 48°25' W 123°24'611.0
2018-May-19 00:30N 48°19' W 123°25'917.7
2018-May-19 00:01N 48°13' W 123°34'1222.3
2018-May-18 23:29N 48°14' W 123°52'1021.8
2018-May-18 23:00N 48°17' W 124°06'1121.4
2018-May-18 22:30N 48°21' W 124°21'1020.6
2018-May-18 22:00N 48°26' W 124°35'1020.2
2018-May-18 21:30N 48°29' W 124°50'1020.7
2018-May-18 21:01N 48°29' W 125°05'1020.3
2018-May-18 20:31N 48°32' W 125°19'1121.0
2018-May-18 20:01N 48°38' W 125°33'1020.5
2018-May-18 19:30N 48°43' W 125°46'1020.2
2018-May-18 19:00N 48°48' W 125°59'1020.8
2018-May-18 18:31N 48°54' W 126°12'1121.2
2018-May-18 18:00N 49°01' W 126°25'1121.6
2018-May-18 17:30N 49°07' W 126°38'1121.8
2018-May-18 17:00N 49°14' W 126°51'1122.2
2018-May-18 16:30N 49°21' W 127°05'5022.4
2018-May-18 14:17N 49°53' W 128°04'621.8
2018-May-18 14:00N 49°57' W 128°11'1122.1
2018-May-18 13:29N 50°06' W 128°22'1122.5
2018-May-18 13:00N 50°14' W 128°32'1122.3
2018-May-18 12:30N 50°23' W 128°43'1122.0
2018-May-18 12:01N 50°32' W 128°53'1122.7
2018-May-18 11:30N 50°41' W 129°04'1122.7
2018-May-18 11:01N 50°50' W 129°14'1122.0
2018-May-18 10:30N 51°01' W 129°21'1121.8
2018-May-18 10:00N 51°10' W 129°27'1122.1
2018-May-18 09:31N 51°21' W 129°34'1122.4
2018-May-18 09:00N 51°31' W 129°41'1121.7
2018-May-18 08:30N 51°41' W 129°48'1121.6
2018-May-18 08:01N 51°51' W 129°55'1121.9
2018-May-18 07:31N 52°01' W 130°02'1121.5
2018-May-18 07:01N 52°11' W 130°08'1121.6
2018-May-18 06:30N 52°21' W 130°15'1121.7
2018-May-18 06:00N 52°31' W 130°22'1121.8
2018-May-18 05:30N 52°41' W 130°29'1121.8
2018-May-18 05:00N 52°51' W 130°37'1122.2
2018-May-18 04:30N 53°01' W 130°44'1122.3
2018-May-18 04:00N 53°11' W 130°51'1122.4
2018-May-18 03:31N 53°21' W 130°58'1122.5
2018-May-18 03:00N 53°33' W 131°01'1122.6
2018-May-18 02:30N 53°44' W 131°01'1222.5
2018-May-18 02:00N 53°55' W 131°02'1122.3
2018-May-18 01:30N 54°06' W 131°02'1122.6
2018-May-18 01:00N 54°18' W 131°02'1121.3
2018-May-18 00:30N 54°27' W 131°12'1122.5
2018-May-18 00:00N 54°36' W 131°23'1623.0
2018-May-17 23:17N 54°50' W 131°39'  

Dump ship's entire track history